createdAt,value
2018-02-15T00:01:05.260Z,99.99
2018-02-15T00:02:15.213Z,99.99
2018-02-15T00:03:25.176Z,99.99
2018-02-15T00:04:35.128Z,99.99
2018-02-15T00:05:44.562Z,99.99
2018-02-15T00:06:54.505Z,99.99
2018-02-15T00:08:04.474Z,99.99
2018-02-15T00:09:14.161Z,99.99
2018-02-15T00:10:24.102Z,99.99
2018-02-15T00:11:33.797Z,99.99
2018-02-15T00:12:43.745Z,99.99
2018-02-15T00:13:53.740Z,99.99
2018-02-15T00:15:03.424Z,99.99
2018-02-15T00:16:13.371Z,99.99
2018-02-15T00:17:23.317Z,99.99
2018-02-15T00:18:33.265Z,99.99
2018-02-15T00:19:43.209Z,99.99
2018-02-15T00:20:53.162Z,99.99
2018-02-15T00:22:03.106Z,99.99
2018-02-15T00:23:13.048Z,99.99
2018-02-15T00:24:23.012Z,99.99
2018-02-15T00:25:32.968Z,99.99
2018-02-15T00:26:42.924Z,99.99
2018-02-15T00:27:52.881Z,99.99
2018-02-15T00:29:02.643Z,99.99
2018-02-15T00:30:11.806Z,99.99
2018-02-15T00:31:21.769Z,99.99
2018-02-15T00:32:30.943Z,99.99
2018-02-15T00:33:40.690Z,99.99
2018-02-15T00:34:50.639Z,99.99
2018-02-15T00:36:00.599Z,99.99
2018-02-15T00:37:10.559Z,99.99
2018-02-15T00:38:20.517Z,99.99
2018-02-15T00:39:29.692Z,99.99
2018-02-15T00:40:39.377Z,99.99
2018-02-15T00:41:49.079Z,99.99
2018-02-15T00:42:58.772Z,99.99
2018-02-15T00:44:08.716Z,99.99
2018-02-15T00:45:18.399Z,99.99
2018-02-15T00:46:28.345Z,99.99
2018-02-15T00:47:38.288Z,99.99
2018-02-15T00:48:48.245Z,99.99
2018-02-15T00:49:58.190Z,99.99
2018-02-15T00:51:07.895Z,99.99
2018-02-15T00:52:17.836Z,99.99
2018-02-15T00:53:27.522Z,99.99
2018-02-15T00:54:37.230Z,99.99
2018-02-15T00:55:46.439Z,99.99
2018-02-15T00:56:56.387Z,99.99
2018-02-15T00:58:06.329Z,99.99
2018-02-15T00:59:16.018Z,99.99
2018-02-15T01:00:25.762Z,99.99
2018-02-15T01:01:35.708Z,99.99
2018-02-15T01:02:45.676Z,99.99
2018-02-15T01:03:55.378Z,99.99
2018-02-15T01:05:05.323Z,99.99
2018-02-15T01:06:15.007Z,99.99
2018-02-15T01:07:24.697Z,99.99
2018-02-15T01:08:34.433Z,99.99
2018-02-15T01:09:44.395Z,99.99
2018-02-15T01:10:54.342Z,99.99
2018-02-15T01:12:04.023Z,99.99
2018-02-15T01:13:13.963Z,99.99
2018-02-15T01:14:23.644Z,99.99
2018-02-15T01:15:33.590Z,99.99
2018-02-15T01:16:43.544Z,99.99
2018-02-15T01:17:53.244Z,99.99
2018-02-15T01:19:03.196Z,99.99
2018-02-15T01:20:13.138Z,99.99
2018-02-15T01:21:23.103Z,99.99
2018-02-15T01:22:33.052Z,99.99
2018-02-15T01:23:42.755Z,99.99
2018-02-15T01:24:52.698Z,99.99
2018-02-15T01:26:02.650Z,99.99
2018-02-15T01:27:12.359Z,99.99
2018-02-15T01:28:22.321Z,99.99
2018-02-15T01:29:32.298Z,99.99
2018-02-15T01:30:41.996Z,99.99
2018-02-15T01:31:51.687Z,99.99
2018-02-15T01:33:01.649Z,99.99
2018-02-15T01:34:11.590Z,99.99
2018-02-15T01:35:21.538Z,99.99
2018-02-15T01:36:31.226Z,99.99
2018-02-15T01:37:41.184Z,99.99
2018-02-15T01:38:51.141Z,99.99
2018-02-15T01:40:00.834Z,99.99
2018-02-15T01:41:10.528Z,99.99
2018-02-15T01:42:20.481Z,99.99
2018-02-15T01:43:30.439Z,99.99
2018-02-15T01:44:40.125Z,99.99
2018-02-15T01:45:50.070Z,99.99
2018-02-15T01:47:00.013Z,99.99
2018-02-15T01:48:09.722Z,99.99
2018-02-15T01:49:19.418Z,99.99
2018-02-15T01:50:29.411Z,99.99
2018-02-15T01:51:39.369Z,99.99
2018-02-15T01:52:49.057Z,99.99
2018-02-15T01:53:59.007Z,99.99
2018-02-15T01:55:08.961Z,99.99
2018-02-15T01:56:18.917Z,99.99
2018-02-15T01:57:28.350Z,99.99
2018-02-15T01:58:38.032Z,99.99
2018-02-15T01:59:47.259Z,99.99
2018-02-15T02:00:56.993Z,99.99
2018-02-15T02:02:06.935Z,99.99
2018-02-15T02:03:16.873Z,99.99
2018-02-15T02:04:26.577Z,99.99
2018-02-15T02:05:36.550Z,99.99
2018-02-15T02:06:46.503Z,99.99
2018-02-15T02:07:56.190Z,99.99
2018-02-15T02:09:05.884Z,99.99
2018-02-15T02:10:15.841Z,99.99
2018-02-15T02:11:25.813Z,99.99
2018-02-15T02:12:35.247Z,99.99
2018-02-15T02:13:44.958Z,99.99
2018-02-15T02:14:54.912Z,99.99
2018-02-15T02:16:04.608Z,99.99
2018-02-15T02:17:14.549Z,99.99
2018-02-15T02:18:24.247Z,99.99
2018-02-15T02:19:33.935Z,99.99
2018-02-15T02:20:43.901Z,99.99
2018-02-15T02:21:53.852Z,99.99
2018-02-15T02:23:03.805Z,99.99
2018-02-15T02:24:13.752Z,99.99
2018-02-15T02:25:23.712Z,99.99
2018-02-15T02:26:33.398Z,99.99
2018-02-15T02:27:43.348Z,99.99
2018-02-15T02:28:53.048Z,99.99
2018-02-15T02:30:02.489Z,99.99
2018-02-15T02:31:12.191Z,99.99
2018-02-15T02:32:21.881Z,99.99
2018-02-15T02:33:31.579Z,99.99
2018-02-15T02:34:41.527Z,99.99
2018-02-15T02:35:51.471Z,99.99
2018-02-15T02:37:01.162Z,99.99
2018-02-15T02:38:11.128Z,99.99
2018-02-15T02:39:20.826Z,99.99
2018-02-15T02:40:30.264Z,99.99
2018-02-15T02:41:40.215Z,99.99
2018-02-15T02:42:50.165Z,99.99
2018-02-15T02:44:00.133Z,99.99
2018-02-15T02:45:10.090Z,99.99
2018-02-15T02:46:20.066Z,99.99
2018-02-15T02:47:30.026Z,99.99
2018-02-15T02:48:39.724Z,99.99
2018-02-15T02:49:49.674Z,99.99
2018-02-15T02:50:59.378Z,99.99
2018-02-15T02:52:09.341Z,99.99
2018-02-15T02:53:19.048Z,99.99
2018-02-15T02:54:29.006Z,99.99
2018-02-15T02:55:38.957Z,99.99
2018-02-15T02:56:48.386Z,99.99
2018-02-15T02:57:58.343Z,99.99
2018-02-15T02:59:08.031Z,99.99
2018-02-15T03:00:18.009Z,99.99
2018-02-15T03:01:27.952Z,99.99
2018-02-15T03:02:37.649Z,99.99
2018-02-15T03:03:47.600Z,99.99
2018-02-15T03:04:57.546Z,99.99
2018-02-15T03:06:07.500Z,99.99
2018-02-15T03:07:17.466Z,99.99
2018-02-15T03:08:27.414Z,99.99
2018-02-15T03:09:37.352Z,99.99
2018-02-15T03:10:47.036Z,99.99
2018-02-15T03:11:56.975Z,99.99
2018-02-15T03:13:06.926Z,99.99
2018-02-15T03:14:16.876Z,99.99
2018-02-15T03:15:26.562Z,99.99
2018-02-15T03:16:36.514Z,99.99
2018-02-15T03:17:46.466Z,99.99
2018-02-15T03:18:56.406Z,99.99
2018-02-15T03:20:06.099Z,99.99
2018-02-15T03:21:15.782Z,99.99
2018-02-15T03:22:25.750Z,99.99
2018-02-15T03:23:35.702Z,99.99
2018-02-15T03:24:45.392Z,99.99
2018-02-15T03:25:55.345Z,99.99
2018-02-15T03:27:05.047Z,99.99
2018-02-15T03:28:15.052Z,99.99
2018-02-15T03:29:24.443Z,99.99
2018-02-15T03:30:34.387Z,99.99
2018-02-15T03:31:44.085Z,99.99
2018-02-15T03:32:54.036Z,99.99
2018-02-15T03:34:04.006Z,99.99
2018-02-15T03:35:13.687Z,99.99
2018-02-15T03:36:23.375Z,99.99
2018-02-15T03:37:33.062Z,99.99
2018-02-15T03:38:43.054Z,99.99
2018-02-15T03:39:52.738Z,99.99
2018-02-15T03:41:02.441Z,99.99
2018-02-15T03:42:11.878Z,99.99
2018-02-15T03:43:21.822Z,99.99
2018-02-15T03:44:31.518Z,99.99
2018-02-15T03:45:41.215Z,99.99
2018-02-15T03:46:51.172Z,99.99
2018-02-15T03:48:01.118Z,99.99
2018-02-15T03:49:11.075Z,99.99
2018-02-15T03:50:21.029Z,99.99
2018-02-15T03:51:30.981Z,99.99
2018-02-15T03:52:40.933Z,99.99
2018-02-15T03:53:50.637Z,99.99
2018-02-15T03:55:00.077Z,99.99
2018-02-15T03:56:10.049Z,99.99
2018-02-15T03:57:19.981Z,99.99
2018-02-15T03:58:29.925Z,99.99
2018-02-15T03:59:39.896Z,99.99
2018-02-15T04:00:49.855Z,99.99
2018-02-15T04:01:59.284Z,99.99
2018-02-15T04:03:08.720Z,99.99
2018-02-15T04:04:18.665Z,99.99
2018-02-15T04:05:28.623Z,99.99
2018-02-15T04:06:38.053Z,99.99
2018-02-15T04:07:47.744Z,99.99
2018-02-15T04:08:57.430Z,99.99
2018-02-15T04:10:07.116Z,99.99
2018-02-15T04:11:17.069Z,99.99
2018-02-15T04:12:27.060Z,99.99
2018-02-15T04:13:37.009Z,99.99
2018-02-15T04:14:46.949Z,99.99
2018-02-15T04:15:56.907Z,99.99
2018-02-15T04:17:06.853Z,99.99
2018-02-15T04:18:16.280Z,99.99
2018-02-15T04:19:25.962Z,99.99
2018-02-15T04:20:35.909Z,99.99
2018-02-15T04:21:45.854Z,99.99
2018-02-15T04:22:55.547Z,99.99
2018-02-15T04:24:05.537Z,99.99
2018-02-15T04:25:15.492Z,99.99
2018-02-15T04:26:24.919Z,99.99
2018-02-15T04:27:34.880Z,99.99
2018-02-15T04:28:44.565Z,99.99
2018-02-15T04:29:54.254Z,99.99
2018-02-15T04:31:03.960Z,99.99
2018-02-15T04:32:13.647Z,99.99
2018-02-15T04:33:23.337Z,99.99
2018-02-15T04:34:33.030Z,99.99
2018-02-15T04:35:42.979Z,99.99
2018-02-15T04:36:52.406Z,99.99
2018-02-15T04:38:02.353Z,99.99
2018-02-15T04:39:12.059Z,99.99
2018-02-15T04:40:22.006Z,99.99
2018-02-15T04:41:31.958Z,99.99
2018-02-15T04:42:41.654Z,99.99
2018-02-15T04:43:51.340Z,99.99
2018-02-15T04:45:01.017Z,99.99
2018-02-15T04:46:10.977Z,99.99
2018-02-15T04:47:20.930Z,99.99
2018-02-15T04:48:30.627Z,99.99
2018-02-15T04:49:40.587Z,99.99
2018-02-15T04:50:50.015Z,99.99
2018-02-15T04:51:59.968Z,99.99
2018-02-15T04:53:09.919Z,99.99
2018-02-15T04:54:19.875Z,99.99
2018-02-15T04:55:29.829Z,99.99
2018-02-15T04:56:39.778Z,99.99
2018-02-15T04:57:49.721Z,99.99
2018-02-15T04:58:59.409Z,99.99
2018-02-15T05:00:09.102Z,99.99
2018-02-15T05:01:19.054Z,99.99
2018-02-15T05:02:28.996Z,99.99
2018-02-15T05:03:38.976Z,99.99
2018-02-15T05:04:48.924Z,99.99
2018-02-15T05:05:58.889Z,99.99
2018-02-15T05:07:08.859Z,99.99
2018-02-15T05:08:18.805Z,99.99
2018-02-15T05:09:28.508Z,99.99
2018-02-15T05:10:38.206Z,99.99
2018-02-15T05:11:48.184Z,99.99
2018-02-15T05:12:58.150Z,99.99
2018-02-15T05:14:08.100Z,99.99
2018-02-15T05:15:18.063Z,99.99
2018-02-15T05:16:28.025Z,99.99
2018-02-15T05:17:37.960Z,99.99
2018-02-15T05:18:47.915Z,99.99
2018-02-15T05:19:57.861Z,99.99
2018-02-15T05:21:07.802Z,99.99
2018-02-15T05:22:17.774Z,99.99
2018-02-15T05:23:27.725Z,99.99
2018-02-15T05:24:37.673Z,99.99
2018-02-15T05:25:47.611Z,99.99
2018-02-15T05:26:57.321Z,99.99
2018-02-15T05:28:07.261Z,99.99
2018-02-15T05:29:17.222Z,99.99
2018-02-15T05:30:27.172Z,99.99
2018-02-15T05:31:36.861Z,99.99
2018-02-15T05:32:46.549Z,99.99
2018-02-15T05:33:56.498Z,99.99
2018-02-15T05:35:06.446Z,99.99
2018-02-15T05:36:16.388Z,99.99
2018-02-15T05:37:26.090Z,99.99
2018-02-15T05:38:36.041Z,99.99
2018-02-15T05:39:45.986Z,99.99
2018-02-15T05:40:55.986Z,99.99
2018-02-15T05:42:05.986Z,99.99
2018-02-15T05:43:15.925Z,99.99
2018-02-15T05:44:25.611Z,99.99
2018-02-15T05:45:35.556Z,99.99
2018-02-15T05:46:45.514Z,99.99
2018-02-15T05:47:55.463Z,99.99
2018-02-15T05:49:05.166Z,99.99
2018-02-15T05:50:15.131Z,99.99
2018-02-15T05:51:24.320Z,99.99
2018-02-15T05:52:34.280Z,99.99
2018-02-15T05:53:43.730Z,99.99
2018-02-15T05:54:53.417Z,99.99
2018-02-15T05:56:03.373Z,99.99
2018-02-15T05:57:13.316Z,99.99
2018-02-15T05:58:23.265Z,99.99
2018-02-15T05:59:32.692Z,99.99
2018-02-15T06:00:42.646Z,99.99
2018-02-15T06:01:52.608Z,99.99
2018-02-15T06:03:02.566Z,99.99
2018-02-15T06:04:12.269Z,99.99
2018-02-15T06:05:21.953Z,99.99
2018-02-15T06:06:31.647Z,99.99
2018-02-15T06:07:41.587Z,99.99
2018-02-15T06:08:51.561Z,99.99
2018-02-15T06:10:01.503Z,99.99
2018-02-15T06:11:11.441Z,99.99
2018-02-15T06:12:20.865Z,99.99
2018-02-15T06:13:30.818Z,99.99
2018-02-15T06:14:40.767Z,99.99
2018-02-15T06:15:50.446Z,99.99
2018-02-15T06:17:00.396Z,99.99
2018-02-15T06:18:10.339Z,99.99
2018-02-15T06:19:20.027Z,99.99
2018-02-15T06:20:29.715Z,99.99
2018-02-15T06:21:39.656Z,99.99
2018-02-15T06:22:49.620Z,99.99
2018-02-15T06:23:59.298Z,99.99
2018-02-15T06:25:09.255Z,99.99
2018-02-15T06:26:18.948Z,99.99
2018-02-15T06:27:28.646Z,99.99
2018-02-15T06:28:38.596Z,99.99
2018-02-15T06:29:48.593Z,99.99
2018-02-15T06:30:58.282Z,99.99
2018-02-15T06:32:07.981Z,99.99
2018-02-15T06:33:17.926Z,99.99
2018-02-15T06:34:27.716Z,99.99
2018-02-15T06:35:37.672Z,99.99
2018-02-15T06:36:47.628Z,99.99
2018-02-15T06:37:57.612Z,99.99
2018-02-15T06:39:07.049Z,99.99
2018-02-15T06:40:16.995Z,99.99
2018-02-15T06:41:26.688Z,99.99
2018-02-15T06:42:36.658Z,99.99
2018-02-15T06:43:46.650Z,99.99
2018-02-15T06:44:56.338Z,99.99
2018-02-15T06:46:06.082Z,99.99
2018-02-15T06:47:16.035Z,99.99
2018-02-15T06:48:25.989Z,99.99
2018-02-15T06:49:35.943Z,99.99
2018-02-15T06:50:45.907Z,99.99
2018-02-15T06:51:55.865Z,99.99
2018-02-15T06:53:05.846Z,99.99
2018-02-15T06:54:15.805Z,99.99
2018-02-15T06:55:25.745Z,99.99
2018-02-15T06:56:35.452Z,99.99
2018-02-15T06:57:45.192Z,99.99
2018-02-15T06:58:55.131Z,99.99
2018-02-15T07:00:05.106Z,99.99
2018-02-15T07:01:14.805Z,99.99
2018-02-15T07:02:24.773Z,99.99
2018-02-15T07:03:34.722Z,99.99
2018-02-15T07:04:44.681Z,99.99
2018-02-15T07:05:54.640Z,99.99
2018-02-15T07:07:04.597Z,99.99
2018-02-15T07:08:14.025Z,99.99
2018-02-15T07:09:23.736Z,99.99
2018-02-15T07:10:33.449Z,99.99
2018-02-15T07:11:43.406Z,99.99
2018-02-15T07:12:53.114Z,99.99
2018-02-15T07:14:02.849Z,99.99
2018-02-15T07:15:12.875Z,99.99
2018-02-15T07:16:22.868Z,99.99
2018-02-15T07:17:32.816Z,99.99
2018-02-15T07:18:42.768Z,99.99
2018-02-15T07:19:52.220Z,99.99
2018-02-15T07:21:01.922Z,99.99
2018-02-15T07:22:11.608Z,99.99
2018-02-15T07:23:21.338Z,99.99
2018-02-15T07:24:31.025Z,99.99
2018-02-15T07:25:40.973Z,99.99
2018-02-15T07:26:50.674Z,99.99
2018-02-15T07:28:00.633Z,99.99
2018-02-15T07:29:10.323Z,99.99
2018-02-15T07:30:20.045Z,99.99
2018-02-15T07:31:30.038Z,99.99
2018-02-15T07:32:39.737Z,99.99
2018-02-15T07:33:49.184Z,99.99
2018-02-15T07:34:59.146Z,99.99
2018-02-15T07:36:09.103Z,99.99
2018-02-15T07:37:18.807Z,99.99
2018-02-15T07:38:28.772Z,99.99
2018-02-15T07:39:38.737Z,99.99
2018-02-15T07:40:48.688Z,99.99
2018-02-15T07:41:58.126Z,99.99
2018-02-15T07:43:08.080Z,99.99
2018-02-15T07:44:18.018Z,99.99
2018-02-15T07:45:27.708Z,99.99
2018-02-15T07:46:37.661Z,99.99
2018-02-15T07:47:47.634Z,99.99
2018-02-15T07:48:57.596Z,99.99
2018-02-15T07:50:07.558Z,99.99
2018-02-15T07:51:17.513Z,99.99
2018-02-15T07:52:27.221Z,99.99
2018-02-15T07:53:37.184Z,99.99
2018-02-15T07:54:46.887Z,99.99
2018-02-15T07:55:56.846Z,99.99
2018-02-15T07:57:06.820Z,99.99
2018-02-15T07:58:16.779Z,99.99
2018-02-15T07:59:26.740Z,99.99
2018-02-15T08:00:36.698Z,99.99
2018-02-15T08:01:46.678Z,99.99
2018-02-15T08:02:56.643Z,99.99
2018-02-15T08:04:06.627Z,99.99
2018-02-15T08:05:16.578Z,99.99
2018-02-15T08:06:26.535Z,99.99
2018-02-15T08:07:36.486Z,99.99
2018-02-15T08:08:46.461Z,99.99
2018-02-15T08:09:56.453Z,99.99
2018-02-15T08:11:06.423Z,99.99
2018-02-15T08:12:16.379Z,99.99
2018-02-15T08:13:26.088Z,99.99
2018-02-15T08:14:35.518Z,99.99
2018-02-15T08:15:44.979Z,99.99
2018-02-15T08:16:54.664Z,99.99
2018-02-15T08:18:04.619Z,99.99
2018-02-15T08:19:14.603Z,99.99
2018-02-15T08:20:24.570Z,99.99
2018-02-15T08:21:34.527Z,99.99
2018-02-15T08:22:44.492Z,99.99
2018-02-15T08:23:54.524Z,99.99
2018-02-15T08:25:04.496Z,99.99
2018-02-15T08:26:14.216Z,99.99
2018-02-15T08:27:23.918Z,99.99
2018-02-15T08:28:33.879Z,99.99
2018-02-15T08:29:43.849Z,99.99
2018-02-15T08:30:53.793Z,99.99
2018-02-15T08:32:03.781Z,99.99
2018-02-15T08:33:13.724Z,99.99
2018-02-15T08:34:23.686Z,99.99
2018-02-15T08:35:33.656Z,99.99
2018-02-15T08:36:43.389Z,99.99
2018-02-15T08:37:53.199Z,99.99
2018-02-15T08:39:03.210Z,99.99
2018-02-15T08:40:13.196Z,99.99
2018-02-15T08:41:23.161Z,99.99
2018-02-15T08:42:33.128Z,99.99
2018-02-15T08:43:43.104Z,99.99
2018-02-15T08:44:53.086Z,99.99
2018-02-15T08:46:03.079Z,99.99
2018-02-15T08:47:12.794Z,99.99
2018-02-15T08:48:22.490Z,99.99
2018-02-15T08:49:32.466Z,99.99
2018-02-15T08:50:42.436Z,99.99
2018-02-15T08:51:52.140Z,99.99
2018-02-15T08:53:02.099Z,99.99
2018-02-15T08:54:12.053Z,99.99
2018-02-15T08:55:22.037Z,99.99
2018-02-15T08:56:32.007Z,99.99
2018-02-15T08:57:41.707Z,99.99
2018-02-15T08:58:51.677Z,99.99
2018-02-15T09:00:01.490Z,99.99
2018-02-15T09:01:11.457Z,99.99
2018-02-15T09:02:21.164Z,99.99
2018-02-15T09:03:30.890Z,99.99
2018-02-15T09:04:40.583Z,99.99
2018-02-15T09:05:50.281Z,99.99
2018-02-15T09:07:00.248Z,99.99
2018-02-15T09:08:09.964Z,99.99
2018-02-15T09:09:19.923Z,99.99
2018-02-15T09:10:29.896Z,99.99
2018-02-15T09:11:39.941Z,99.99
2018-02-15T09:12:49.897Z,99.99
2018-02-15T09:13:59.864Z,99.99
2018-02-15T09:15:09.839Z,99.99
2018-02-15T09:16:19.825Z,99.99
2018-02-15T09:17:29.533Z,99.99
2018-02-15T09:18:39.491Z,99.99
2018-02-15T09:19:49.457Z,99.99
2018-02-15T09:20:59.431Z,99.99
2018-02-15T09:22:09.395Z,99.99
2018-02-15T09:23:19.435Z,99.99
2018-02-15T09:24:29.153Z,99.99
2018-02-15T09:25:39.158Z,99.99
2018-02-15T09:26:48.867Z,99.99
2018-02-15T09:27:58.888Z,99.99
2018-02-15T09:29:09.159Z,99.99
2018-02-15T09:30:19.151Z,99.99
2018-02-15T09:31:29.145Z,99.99
2018-02-15T09:32:39.126Z,99.99
2018-02-15T09:33:49.096Z,99.99
2018-02-15T09:34:58.830Z,99.99
2018-02-15T09:36:08.799Z,99.99
2018-02-15T09:37:18.796Z,99.99
2018-02-15T09:38:28.783Z,99.99
2018-02-15T09:39:38.771Z,99.99
2018-02-15T09:40:48.475Z,99.99
2018-02-15T09:41:58.242Z,99.99
2018-02-15T09:43:08.222Z,99.99
2018-02-15T09:44:17.912Z,99.99
2018-02-15T09:45:27.876Z,99.99
2018-02-15T09:46:37.591Z,99.99
2018-02-15T09:47:47.293Z,99.99
2018-02-15T09:48:57.275Z,99.99
2018-02-15T09:50:07.034Z,99.99
2018-02-15T09:51:17.020Z,99.99
2018-02-15T09:52:26.763Z,99.99
2018-02-15T09:53:36.824Z,99.99
2018-02-15T09:54:46.534Z,99.99
2018-02-15T09:55:56.569Z,99.99
2018-02-15T09:57:06.553Z,99.99
2018-02-15T09:58:16.086Z,99.99
2018-02-15T09:59:25.538Z,99.99
2018-02-15T10:00:35.516Z,99.99
2018-02-15T10:01:45.254Z,99.99
2018-02-15T10:02:55.231Z,99.99
2018-02-15T10:04:04.683Z,99.99
2018-02-15T10:05:14.673Z,99.99
2018-02-15T10:06:24.120Z,99.99
2018-02-15T10:07:34.107Z,99.99
2018-02-15T10:08:44.071Z,99.99
2018-02-15T10:09:54.038Z,99.99
2018-02-15T10:11:04.054Z,99.99
2018-02-15T10:12:14.043Z,99.99
2018-02-15T10:13:23.778Z,99.99
2018-02-15T10:14:33.784Z,99.99
2018-02-15T10:15:44.003Z,99.99
2018-02-15T10:16:53.447Z,99.99
2018-02-15T10:18:03.415Z,99.99
2018-02-15T10:19:13.374Z,99.99
2018-02-15T10:20:23.099Z,99.99
2018-02-15T10:21:33.064Z,99.99
2018-02-15T10:22:43.031Z,99.99
2018-02-15T10:23:52.879Z,99.99
2018-02-15T10:25:02.603Z,99.99
2018-02-15T10:26:12.323Z,99.99
2018-02-15T10:27:22.298Z,99.99
2018-02-15T10:28:32.297Z,99.99
2018-02-15T10:29:42.268Z,99.99
2018-02-15T10:30:51.984Z,99.99
2018-02-15T10:32:02.221Z,99.99
2018-02-15T10:33:12.229Z,99.99
2018-02-15T10:34:22.221Z,99.99
2018-02-15T10:35:31.692Z,99.99
2018-02-15T10:36:41.709Z,99.99
2018-02-15T10:37:51.721Z,99.99
2018-02-15T10:39:01.684Z,99.1
2018-02-15T10:40:11.418Z,99.19
2018-02-15T10:41:21.129Z,98.63
2018-02-15T10:42:31.094Z,97.77
2018-02-15T10:43:40.798Z,97.11
2018-02-15T10:44:50.767Z,97.3
2018-02-15T10:46:00.817Z,97.2
2018-02-15T10:47:10.513Z,97.39
2018-02-15T10:48:20.476Z,97.96
2018-02-15T10:49:30.440Z,98.1
2018-02-15T10:50:40.392Z,98.15
2018-02-15T10:51:50.111Z,97.39
2018-02-15T10:52:59.855Z,96.07
2018-02-15T10:54:09.820Z,96.83
2018-02-15T10:55:19.276Z,96.07
2018-02-15T10:56:29.372Z,95.64
2018-02-15T10:57:39.124Z,95.74
2018-02-15T10:58:49.079Z,94.79
2018-02-15T10:59:59.058Z,94.79
2018-02-15T11:01:09.039Z,95.55
2018-02-15T11:02:19.111Z,95.5
2018-02-15T11:03:29.116Z,96.07
2018-02-15T11:04:39.157Z,96.73
2018-02-15T11:05:49.137Z,96.73
2018-02-15T11:06:59.241Z,96.07
2018-02-15T11:08:09.271Z,96.07
2018-02-15T11:09:19.267Z,95.69
2018-02-15T11:10:29.287Z,95.55
2018-02-15T11:11:39.255Z,94.98
2018-02-15T11:12:49.266Z,94.51
2018-02-15T11:13:59.240Z,93.65
2018-02-15T11:15:09.212Z,94.51
2018-02-15T11:16:18.916Z,94.32
2018-02-15T11:17:28.881Z,93.23
2018-02-15T11:18:39.134Z,93.04
2018-02-15T11:19:49.129Z,92.57
2018-02-15T11:20:59.116Z,93.18
2018-02-15T11:22:09.169Z,92.71
2018-02-15T11:23:19.119Z,92.38
2018-02-15T11:24:29.078Z,91.52
2018-02-15T11:25:39.129Z,91.52
2018-02-15T11:26:49.229Z,91.71
2018-02-15T11:27:59.202Z,91.81
2018-02-15T11:29:09.178Z,91.52
2018-02-15T11:30:18.621Z,92.09
2018-02-15T11:31:28.602Z,91.81
2018-02-15T11:32:38.588Z,91.71
2018-02-15T11:33:48.428Z,91.43
2018-02-15T11:34:58.403Z,91.52
2018-02-15T11:36:08.398Z,92.28
2018-02-15T11:37:18.363Z,92.24
2018-02-15T11:38:28.327Z,92.24
2018-02-15T11:39:38.295Z,92.71
2018-02-15T11:40:48.259Z,92.61
2018-02-15T11:41:57.978Z,92.61
2018-02-15T11:43:07.937Z,93.18
2018-02-15T11:44:17.642Z,92.71
2018-02-15T11:45:27.360Z,93.75
2018-02-15T11:46:37.636Z,94.65
2018-02-15T11:47:47.342Z,95.59
2018-02-15T11:48:57.308Z,96.16
2018-02-15T11:50:07.282Z,95.97
2018-02-15T11:51:16.984Z,96.16
2018-02-15T11:52:27.006Z,95.88
2018-02-15T11:53:36.953Z,95.59
2018-02-15T11:54:46.699Z,95.31
2018-02-15T11:55:56.707Z,94.74
2018-02-15T11:57:06.685Z,94.74
2018-02-15T11:58:16.401Z,95.97
2018-02-15T11:59:26.362Z,94.93
2018-02-15T12:00:36.353Z,95.4
2018-02-15T12:01:46.339Z,94.93
2018-02-15T12:02:56.300Z,94.84
2018-02-15T12:04:06.272Z,94.56
2018-02-15T12:05:16.296Z,94.13
2018-02-15T12:06:26.291Z,94.89
2018-02-15T12:07:35.997Z,94.13
2018-02-15T12:08:45.729Z,93.65
2018-02-15T12:09:55.738Z,93.75
2018-02-15T12:11:05.705Z,93.27
2018-02-15T12:12:15.398Z,92.71
2018-02-15T12:13:24.854Z,91.62
2018-02-15T12:14:34.340Z,91.05
2018-02-15T12:15:44.326Z,90.29
2018-02-15T12:16:54.286Z,90.39
2018-02-15T12:18:04.067Z,89.91
2018-02-15T12:19:14.035Z,90.2
2018-02-15T12:20:24.007Z,90.1
2018-02-15T12:21:34.025Z,90.58
2018-02-15T12:22:43.486Z,90.86
2018-02-15T12:23:53.457Z,91.24
2018-02-15T12:25:03.234Z,91.19
2018-02-15T12:26:13.329Z,91.38
2018-02-15T12:27:23.394Z,91.86
2018-02-15T12:28:33.357Z,91.57
2018-02-15T12:29:43.329Z,92.33
2018-02-15T12:30:53.310Z,92.8
2018-02-15T12:32:03.271Z,92.43
2018-02-15T12:33:12.721Z,92.05
2018-02-15T12:34:22.680Z,92.14
2018-02-15T12:35:32.676Z,92.33
2018-02-15T12:36:42.684Z,91.86
2018-02-15T12:37:52.646Z,91.05
2018-02-15T12:39:02.360Z,91.38
2018-02-15T12:40:12.085Z,92.52
2018-02-15T12:41:22.051Z,92.52
2018-02-15T12:42:31.505Z,92.24
2018-02-15T12:43:41.464Z,91.48
2018-02-15T12:44:51.203Z,91.95
2018-02-15T12:46:01.170Z,93.27
2018-02-15T12:47:11.172Z,93.27
2018-02-15T12:48:20.890Z,93.18
2018-02-15T12:49:30.589Z,93.65
2018-02-15T12:50:40.555Z,94.42
2018-02-15T12:51:50.538Z,94.23
2018-02-15T12:53:00.071Z,94.79
2018-02-15T12:54:09.797Z,94.7
2018-02-15T12:55:19.259Z,94.7
2018-02-15T12:56:29.225Z,94.23
2018-02-15T12:57:38.940Z,95.26
2018-02-15T12:58:48.909Z,94.93
2018-02-15T12:59:58.907Z,95.31
2018-02-15T13:01:08.918Z,95.88
2018-02-15T13:02:18.624Z,95.78
2018-02-15T13:03:28.597Z,94.93
2018-02-15T13:04:38.575Z,95.45
2018-02-15T13:05:48.556Z,95.74
2018-02-15T13:06:58.511Z,95.74
2018-02-15T13:08:08.471Z,95.55
2018-02-15T13:09:18.239Z,94.98
2018-02-15T13:10:28.205Z,95.17
2018-02-15T13:11:38.173Z,94.98
2018-02-15T13:12:48.152Z,94.6
2018-02-15T13:13:58.107Z,94.6
2018-02-15T13:15:07.276Z,94.79
2018-02-15T13:16:17.250Z,94.89
2018-02-15T13:17:27.233Z,94.51
2018-02-15T13:18:36.699Z,95.07
2018-02-15T13:19:46.682Z,94.79
2018-02-15T13:20:56.653Z,95.21
2018-02-15T13:22:06.677Z,95.5
2018-02-15T13:23:16.399Z,95.59
2018-02-15T13:24:26.470Z,95.59
2018-02-15T13:25:36.428Z,95.78
2018-02-15T13:26:46.391Z,95.4
2018-02-15T13:27:56.090Z,95.78
2018-02-15T13:29:06.060Z,95.5
2018-02-15T13:30:15.799Z,95.78
2018-02-15T13:31:25.774Z,95.07
2018-02-15T13:32:35.738Z,95.26
2018-02-15T13:33:45.454Z,94.98
2018-02-15T13:34:55.148Z,95.55
2018-02-15T13:36:05.140Z,95.26
2018-02-15T13:37:15.137Z,94.6
2018-02-15T13:38:24.586Z,94.79
2018-02-15T13:39:34.612Z,94.32
2018-02-15T13:40:44.653Z,94.89
2018-02-15T13:41:54.378Z,94.51
2018-02-15T13:43:04.089Z,94.6
2018-02-15T13:44:14.067Z,94.98
2018-02-15T13:45:24.021Z,94.98
2018-02-15T13:46:33.758Z,94.42
2018-02-15T13:47:43.728Z,95.07
2018-02-15T13:48:53.689Z,94.7
2018-02-15T13:50:03.654Z,95.07
2018-02-15T13:51:13.611Z,94.42
2018-02-15T13:52:23.330Z,94.7
2018-02-15T13:53:33.302Z,95.07
2018-02-15T13:54:43.285Z,94.32
2018-02-15T13:55:53.249Z,94.79
2018-02-15T13:57:03.219Z,95.17
2018-02-15T13:58:13.206Z,94.51
2018-02-15T13:59:23.191Z,95.55
2018-02-15T14:00:33.159Z,94.79
2018-02-15T14:01:43.126Z,94.32
2018-02-15T14:02:53.088Z,94.79
2018-02-15T14:04:03.076Z,94.42
2018-02-15T14:05:12.779Z,94.51
2018-02-15T14:06:22.727Z,94.32
2018-02-15T14:07:32.689Z,94.23
2018-02-15T14:08:42.656Z,94.32
2018-02-15T14:09:52.618Z,94.51
2018-02-15T14:11:02.326Z,94.42
2018-02-15T14:12:12.300Z,94.42
2018-02-15T14:13:22.003Z,94.42
2018-02-15T14:14:31.969Z,94.6
2018-02-15T14:15:41.929Z,94.7
2018-02-15T14:16:51.887Z,94.42
2018-02-15T14:18:01.597Z,94.79
2018-02-15T14:19:11.563Z,94.51
2018-02-15T14:20:21.047Z,94.42
2018-02-15T14:21:31.002Z,94.23
2018-02-15T14:22:40.946Z,94.42
2018-02-15T14:23:50.934Z,94.51
2018-02-15T14:25:00.390Z,94.13
2018-02-15T14:26:10.345Z,94.51
2018-02-15T14:27:20.341Z,94.42
2018-02-15T14:28:30.306Z,94.79
2018-02-15T14:29:40.009Z,94.51
2018-02-15T14:30:49.970Z,94.04
2018-02-15T14:31:59.661Z,94.32
2018-02-15T14:33:09.358Z,94.89
2018-02-15T14:34:18.822Z,94.6
2018-02-15T14:35:28.521Z,92.43
2018-02-15T14:36:38.185Z,92.14
2018-02-15T14:37:47.694Z,90.25
2018-02-15T14:38:57.384Z,89.01
2018-02-15T14:40:07.116Z,90.63
2018-02-15T14:41:17.332Z,90.72
2018-02-15T14:42:27.303Z,91.57
2018-02-15T14:43:36.992Z,92.52
2018-02-15T14:44:46.962Z,91.67
2018-02-15T14:45:56.930Z,92.8
2018-02-15T14:47:06.878Z,92.43
2018-02-15T14:48:16.537Z,93.08
2018-02-15T14:49:26.506Z,91.67
2018-02-15T14:50:36.469Z,89.87
2018-02-15T14:51:46.438Z,89.49
2018-02-15T14:52:56.436Z,88.07
2018-02-15T14:54:06.411Z,87.31
2018-02-15T14:55:16.376Z,87.4
2018-02-15T14:56:26.340Z,88.17
2018-02-15T14:57:36.304Z,87.4
2018-02-15T14:58:46.025Z,89.68
2018-02-15T14:59:55.995Z,90.15
2018-02-15T15:01:05.693Z,91.57